Time;durP1;ratioP1;P1;durP2;ratioP2;P2;SDS_P1;SDS_P2;PMS_P1;PMS_P2;Temp;Humidity;BMP_temperature;BMP_pressure;BME280_temperature;BME280_humidity;BME280_pressure;Samples;Min_cycle;Max_cycle;Signal;HPM_P1;HPM_P2
2023/11/05 00:00:09;;;;;;;15.73;2.97;;;;;;;;;;5115103;28;20078;-27
2023/11/05 00:02:34;;;;;;;13.32;2.63;;;;;;;;;;5114259;28;20257;-27
2023/11/05 00:04:59;;;;;;;20.60;3.00;;;;;;;;;;5114914;28;20091;-27
2023/11/05 00:07:24;;;;;;;14.73;2.42;;;;;;;;;;5115521;28;20068;-27
2023/11/05 00:09:50;;;;;;;19.25;3.58;;;;;;;;;;5115199;28;20016;-28
2023/11/05 00:12:15;;;;;;;17.30;3.30;;;;;;;;;;5114779;28;20486;-27
2023/11/05 00:14:40;;;;;;;18.60;2.42;;;;;;;;;;5115014;28;20265;-27
2023/11/05 00:17:06;;;;;;;15.05;2.65;;;;;;;;;;5114603;28;20016;-28
2023/11/05 00:19:31;;;;;;;15.23;2.40;;;;;;;;;;5114631;28;20072;-28
2023/11/05 00:21:56;;;;;;;16.67;2.70;;;;;;;;;;5114912;28;20008;-27
2023/11/05 00:24:21;;;;;;;18.30;2.50;;;;;;;;;;5114614;28;20246;-27
2023/11/05 00:26:46;;;;;;;14.65;2.85;;;;;;;;;;5114802;28;20027;-27
2023/11/05 00:29:14;;;;;;;18.37;2.80;;;;;;;;;;5114491;28;20012;-27
2023/11/05 00:31:39;;;;;;;16.50;2.20;;;;;;;;;;5114722;28;20265;-27
2023/11/05 00:34:05;;;;;;;11.60;2.88;;;;;;;;;;5114954;28;20366;-27
2023/11/05 00:36:30;;;;;;;17.37;2.70;;;;;;;;;;5114724;28;20023;-27
2023/11/05 00:38:56;;;;;;;15.10;2.47;;;;;;;;;;5114796;28;20289;-27
2023/11/05 00:41:21;;;;;;;19.67;2.58;;;;;;;;;;5113616;28;20258;-27
2023/11/05 00:43:46;;;;;;;13.47;2.60;;;;;;;;;;5114176;28;20420;-28
2023/11/05 00:46:12;;;;;;;20.30;3.30;;;;;;;;;;5114791;28;20254;-27
2023/11/05 00:48:37;;;;;;;12.15;2.80;;;;;;;;;;5114449;28;20716;-27
2023/11/05 00:51:03;;;;;;;13.07;2.50;;;;;;;;;;5113942;28;20019;-28
2023/11/05 00:53:28;;;;;;;10.15;2.40;;;;;;;;;;5114129;28;20314;-27
2023/11/05 00:55:54;;;;;;;13.03;2.30;;;;;;;;;;5114133;28;20470;-27
2023/11/05 00:58:19;;;;;;;16.27;2.65;;;;;;;;;;5114569;28;20022;-27
2023/11/05 01:00:44;;;;;;;17.63;2.90;;;;;;;;;;5114060;28;20012;-27
2023/11/05 01:03:11;;;;;;;17.97;2.67;;;;;;;;;;5114081;28;20024;-27
2023/11/05 01:05:36;;;;;;;11.63;2.22;;;;;;;;;;5113865;28;20257;-27
2023/11/05 01:08:01;;;;;;;17.63;2.47;;;;;;;;;;5113975;28;20027;-27
2023/11/05 01:10:27;;;;;;;10.40;2.63;;;;;;;;;;5113978;28;20747;-27
2023/11/05 01:12:52;;;;;;;14.65;2.85;;;;;;;;;;5114400;28;20015;-28
2023/11/05 01:15:17;;;;;;;9.60;2.35;;;;;;;;;;5113863;28;20355;-27
2023/11/05 01:17:42;;;;;;;13.47;2.03;;;;;;;;;;5113818;28;20019;-28
2023/11/05 01:20:08;;;;;;;20.38;3.08;;;;;;;;;;5113815;28;20261;-27
2023/11/05 01:22:34;;;;;;;14.43;2.30;;;;;;;;;;5114104;28;20422;-27
2023/11/05 01:24:59;;;;;;;18.05;2.55;;;;;;;;;;5113875;28;20063;-27
2023/11/05 01:27:24;;;;;;;13.73;2.30;;;;;;;;;;5113811;28;20104;-27
2023/11/05 01:29:49;;;;;;;13.43;2.63;;;;;;;;;;5113820;28;20724;-28
2023/11/05 01:32:14;;;;;;;16.50;2.83;;;;;;;;;;5114307;28;20245;-27
2023/11/05 01:34:40;;;;;;;12.17;2.20;;;;;;;;;;5113674;28;20016;-28
2023/11/05 01:37:05;;;;;;;13.70;2.25;;;;;;;;;;5114259;28;20261;-27
2023/11/05 01:39:30;;;;;;;16.88;2.28;;;;;;;;;;5113625;28;20027;-27
2023/11/05 01:41:55;;;;;;;12.18;2.17;;;;;;;;;;5113872;28;20091;-28
2023/11/05 01:44:20;;;;;;;15.18;2.20;;;;;;;;;;5113632;28;20015;-27
2023/11/05 01:46:46;;;;;;;11.77;2.03;;;;;;;;;;5114153;28;20020;-27
2023/11/05 01:49:12;;;;;;;13.18;2.55;;;;;;;;;;5113582;28;20597;-27
2023/11/05 01:51:37;;;;;;;13.88;2.20;;;;;;;;;;5113575;28;20043;-28
2023/11/05 01:54:03;;;;;;;12.32;2.53;;;;;;;;;;5116374;28;20365;-27
2023/11/05 01:56:30;;;;;;;13.75;2.00;;;;;;;;;;5117702;28;20043;-27
2023/11/05 01:58:57;;;;;;;7.70;2.17;;;;;;;;;;5117920;28;20062;-28
2023/11/05 02:01:24;;;;;;;15.32;2.75;;;;;;;;;;5117938;28;20123;-27
2023/11/05 02:03:49;;;;;;;8.57;2.08;;;;;;;;;;5117682;28;20077;-27
2023/11/05 02:06:15;;;;;;;15.97;2.23;;;;;;;;;;5117404;28;20015;-32
2023/11/05 02:08:41;;;;;;;15.60;3.33;;;;;;;;;;5117523;28;20253;-33
2023/11/05 02:11:06;;;;;;;19.45;2.97;;;;;;;;;;5098771;28;20020;-32
2023/11/05 02:13:44;;;;;;;14.95;2.60;;;;;;;;;;5117205;28;20031;-33
2023/11/05 02:16:10;;;;;;;17.55;2.67;;;;;;;;;;5117156;28;20015;-33
2023/11/05 02:18:35;;;;;;;16.23;2.33;;;;;;;;;;5117066;28;20019;-33
2023/11/05 02:21:03;;;;;;;15.38;2.45;;;;;;;;;;5117016;28;20022;-32
2023/11/05 02:23:29;;;;;;;16.63;2.50;;;;;;;;;;5116959;28;20463;-32
2023/11/05 02:25:56;;;;;;;16.45;2.38;;;;;;;;;;5117248;28;20020;-33
2023/11/05 02:28:21;;;;;;;10.50;2.13;;;;;;;;;;5117162;28;20090;-34
2023/11/05 02:30:46;;;;;;;13.73;2.33;;;;;;;;;;5116872;28;20096;-34
2023/11/05 02:33:12;;;;;;;13.90;2.27;;;;;;;;;;5117390;28;20257;-33
2023/11/05 02:35:37;;;;;;;14.60;2.50;;;;;;;;;;5116736;28;20261;-33
2023/11/05 02:38:02;;;;;;;16.67;2.60;;;;;;;;;;5116701;28;20320;-33
2023/11/05 02:40:27;;;;;;;12.85;2.25;;;;;;;;;;5116968;28;20260;-33
2023/11/05 02:42:52;;;;;;;11.85;2.17;;;;;;;;;;5116896;28;20016;-33
2023/11/05 02:45:18;;;;;;;16.70;2.07;;;;;;;;;;5116607;28;20038;-33
2023/11/05 02:47:44;;;;;;;18.45;2.45;;;;;;;;;;5116762;28;20274;-33
2023/11/05 02:50:09;;;;;;;13.35;2.22;;;;;;;;;;5116739;28;20370;-33
2023/11/05 02:52:34;;;;;;;15.53;2.57;;;;;;;;;;5116302;28;20047;-32
2023/11/05 02:55:00;;;;;;;11.00;2.20;;;;;;;;;;5116660;28;20253;-33
2023/11/05 02:57:26;;;;;;;12.90;2.00;;;;;;;;;;5116555;28;20601;-33
2023/11/05 02:59:51;;;;;;;14.17;2.40;;;;;;;;;;5116343;28;20019;-33
2023/11/05 03:02:16;;;;;;;13.50;2.40;;;;;;;;;;5116224;28;20261;-32
2023/11/05 03:04:41;;;;;;;11.32;2.25;;;;;;;;;;5115305;28;20466;-33
2023/11/05 03:07:06;;;;;;;12.13;2.20;;;;;;;;;;5116243;28;20016;-33
2023/11/05 03:09:31;;;;;;;15.23;2.30;;;;;;;;;;5116119;28;20306;-32
2023/11/05 03:11:57;;;;;;;14.87;2.07;;;;;;;;;;5116012;28;20292;-33
2023/11/05 03:14:22;;;;;;;12.67;2.20;;;;;;;;;;5115946;28;20269;-33
2023/11/05 03:16:47;;;;;;;12.93;1.90;;;;;;;;;;5116306;28;20246;-33
2023/11/05 03:19:13;;;;;;;11.25;2.33;;;;;;;;;;5115847;28;20094;-33
2023/11/05 03:21:39;;;;;;;17.33;2.28;;;;;;;;;;5116493;28;20091;-33
2023/11/05 03:24:04;;;;;;;14.77;2.30;;;;;;;;;;5115855;28;20016;-33
2023/11/05 03:26:30;;;;;;;11.02;2.08;;;;;;;;;;5116055;28;20018;-33
2023/11/05 03:28:55;;;;;;;14.02;2.25;;;;;;;;;;5115667;28;20016;-33
2023/11/05 03:31:21;;;;;;;13.65;2.60;;;;;;;;;;5115690;28;20382;-33
2023/11/05 03:33:48;;;;;;;14.65;1.98;;;;;;;;;;5116390;28;20020;-33
2023/11/05 03:36:13;;;;;;;10.40;2.10;;;;;;;;;;5115543;28;20104;-33
2023/11/05 03:38:39;;;;;;;8.85;1.75;;;;;;;;;;5115674;28;20047;-33
2023/11/05 03:41:06;;;;;;;11.63;2.10;;;;;;;;;;5115409;28;20012;-32
2023/11/05 03:43:31;;;;;;;8.77;2.03;;;;;;;;;;5115459;28;20030;-33
2023/11/05 03:45:57;;;;;;;5.60;1.67;;;;;;;;;;5115575;28;20090;-33
2023/11/05 03:48:22;;;;;;;10.17;1.90;;;;;;;;;;5114114;28;20026;-33
2023/11/05 03:50:47;;;;;;;11.10;1.77;;;;;;;;;;5115145;28;20289;-32
2023/11/05 03:53:13;;;;;;;9.30;1.67;;;;;;;;;;5096806;28;20454;-33
2023/11/05 03:55:38;;;;;;;7.28;1.80;;;;;;;;;;5115207;28;20344;-33
2023/11/05 03:58:03;;;;;;;7.87;1.50;;;;;;;;;;5115069;28;20491;-33
2023/11/05 04:00:29;;;;;;;7.72;1.67;;;;;;;;;;5115088;28;20249;-33
2023/11/05 04:02:54;;;;;;;13.95;2.13;;;;;;;;;;5115306;28;20020;-33
2023/11/05 04:05:19;;;;;;;8.07;2.28;;;;;;;;;;5114953;28;20019;-33
2023/11/05 04:07:44;;;;;;;8.68;1.45;;;;;;;;;;5114632;28;20390;-33
2023/11/05 04:10:10;;;;;;;7.00;1.60;;;;;;;;;;5115479;28;20452;-33
2023/11/05 04:12:36;;;;;;;7.38;1.30;;;;;;;;;;5115054;28;20249;-33
2023/11/05 04:15:04;;;;;;;6.90;1.45;;;;;;;;;;5096163;28;20394;-32
2023/11/05 04:17:29;;;;;;;7.03;1.60;;;;;;;;;;5114822;28;20024;-33
2023/11/05 04:19:55;;;;;;;9.10;1.70;;;;;;;;;;5114967;28;20374;-33
2023/11/05 04:22:20;;;;;;;6.83;1.50;;;;;;;;;;5114736;28;20359;-33
2023/11/05 04:24:45;;;;;;;7.72;1.70;;;;;;;;;;5115163;28;20253;-32
2023/11/05 04:27:10;;;;;;;7.22;1.65;;;;;;;;;;5114796;28;20015;-33
2023/11/05 04:29:36;;;;;;;6.70;1.42;;;;;;;;;;5114825;28;20047;-33
2023/11/05 04:32:01;;;;;;;10.97;1.97;;;;;;;;;;5114540;28;20030;-33
2023/11/05 04:34:27;;;;;;;4.38;1.80;;;;;;;;;;5114642;28;20267;-33
2023/11/05 04:36:52;;;;;;;8.55;1.85;;;;;;;;;;5114706;28;20011;-33
2023/11/05 04:39:18;;;;;;;7.15;2.10;;;;;;;;;;5114874;28;20046;-33
2023/11/05 04:41:43;;;;;;;8.07;2.30;;;;;;;;;;5114330;28;20015;-33
2023/11/05 04:44:08;;;;;;;7.70;1.87;;;;;;;;;;5114800;28;20379;-33
2023/11/05 04:46:40;;;;;;;5.70;1.93;;;;;;;;;;5114230;28;20257;-33
2023/11/05 04:49:05;;;;;;;8.07;2.03;;;;;;;;;;5114480;28;20253;-33
2023/11/05 04:51:30;;;;;;;9.02;2.10;;;;;;;;;;5114161;28;20368;-33
2023/11/05 04:53:55;;;;;;;10.03;1.93;;;;;;;;;;5114127;28;20024;-33
2023/11/05 04:56:21;;;;;;;4.60;2.00;;;;;;;;;;5114682;28;20337;-33
2023/11/05 04:58:46;;;;;;;6.88;2.10;;;;;;;;;;5114013;28;20280;-33
2023/11/05 05:01:11;;;;;;;7.67;2.00;;;;;;;;;;5114341;28;20011;-33
2023/11/05 05:03:37;;;;;;;11.80;2.25;;;;;;;;;;5114324;28;20273;-33
2023/11/05 05:06:03;;;;;;;9.07;2.47;;;;;;;;;;5113940;28;20378;-33
2023/11/05 05:08:28;;;;;;;9.38;1.92;;;;;;;;;;5114267;28;20381;-33
2023/11/05 05:10:54;;;;;;;7.35;1.98;;;;;;;;;;5114212;28;20016;-34
2023/11/05 05:13:19;;;;;;;8.65;2.10;;;;;;;;;;5114077;28;20031;-32
2023/11/05 05:15:44;;;;;;;10.53;2.40;;;;;;;;;;5113492;28;20451;-33
2023/11/05 05:18:09;;;;;;;10.60;2.20;;;;;;;;;;5113692;28;20277;-33
2023/11/05 05:20:35;;;;;;;10.18;2.03;;;;;;;;;;5114077;28;20264;-33
2023/11/05 05:23:00;;;;;;;10.30;2.55;;;;;;;;;;5113398;28;20398;-33
2023/11/05 05:25:25;;;;;;;8.90;2.17;;;;;;;;;;5113817;28;20023;-33
2023/11/05 05:27:51;;;;;;;9.05;2.08;;;;;;;;;;5114433;28;20027;-33
2023/11/05 05:30:18;;;;;;;6.60;2.30;;;;;;;;;;5118229;28;20373;-33
2023/11/05 05:32:43;;;;;;;11.98;2.53;;;;;;;;;;5117846;28;20048;-33
2023/11/05 05:35:09;;;;;;;9.40;2.45;;;;;;;;;;5117980;28;20051;-33
2023/11/05 05:37:34;;;;;;;10.10;2.63;;;;;;;;;;5099490;28;20040;-32
2023/11/05 05:40:00;;;;;;;13.00;2.70;;;;;;;;;;5118967;28;20394;-33
2023/11/05 05:42:25;;;;;;;11.07;2.30;;;;;;;;;;5117791;28;20050;-33
2023/11/05 05:44:50;;;;;;;8.02;2.35;;;;;;;;;;5117752;28;20019;-33
2023/11/05 05:47:15;;;;;;;7.60;2.03;;;;;;;;;;5117704;28;20416;-33
2023/11/05 05:49:41;;;;;;;10.05;2.20;;;;;;;;;;5117639;28;20300;-33
2023/11/05 05:52:06;;;;;;;11.55;2.30;;;;;;;;;;5117444;28;20442;-33
2023/11/05 05:54:31;;;;;;;10.97;2.77;;;;;;;;;;5118090;28;20027;-33
2023/11/05 05:56:56;;;;;;;10.52;3.17;;;;;;;;;;5117407;28;20277;-33
2023/11/05 05:59:21;;;;;;;7.57;2.53;;;;;;;;;;5117352;28;20058;-33
2023/11/05 06:01:47;;;;;;;10.67;2.67;;;;;;;;;;5099164;28;20096;-33
2023/11/05 06:04:12;;;;;;;11.70;2.75;;;;;;;;;;5117559;28;20253;-33
2023/11/05 06:06:37;;;;;;;11.10;2.80;;;;;;;;;;5117565;28;20095;-33
2023/11/05 06:09:06;;;;;;;7.05;2.50;;;;;;;;;;5117523;28;20020;-33
2023/11/05 06:11:31;;;;;;;9.60;2.75;;;;;;;;;;5117311;28;20020;-33
2023/11/05 06:13:57;;;;;;;6.57;2.80;;;;;;;;;;5117198;28;20030;-33
2023/11/05 06:16:22;;;;;;;10.85;2.60;;;;;;;;;;5117664;28;20034;-33
2023/11/05 06:18:48;;;;;;;13.35;3.08;;;;;;;;;;5117020;28;20023;-33
2023/11/05 06:21:13;;;;;;;7.47;2.80;;;;;;;;;;5117265;28;20019;-33
2023/11/05 06:23:39;;;;;;;13.93;2.88;;;;;;;;;;5117055;28;20520;-33
2023/11/05 06:26:04;;;;;;;8.20;2.53;;;;;;;;;;5116994;28;20019;-34
2023/11/05 06:28:29;;;;;;;10.10;2.90;;;;;;;;;;5116927;28;20039;-33
2023/11/05 06:30:54;;;;;;;8.63;2.65;;;;;;;;;;5117085;28;20261;-32
2023/11/05 06:33:22;;;;;;;16.13;3.00;;;;;;;;;;5116550;28;20106;-33
2023/11/05 06:35:47;;;;;;;11.57;2.90;;;;;;;;;;5116495;28;20095;-33
2023/11/05 06:38:12;;;;;;;10.85;2.67;;;;;;;;;;5116110;28;20517;-33
2023/11/05 06:40:37;;;;;;;7.18;2.70;;;;;;;;;;5114852;28;20090;-33
2023/11/05 06:43:02;;;;;;;7.85;2.28;;;;;;;;;;5115888;28;20020;-33
2023/11/05 06:45:28;;;;;;;15.10;2.80;;;;;;;;;;5116143;28;20065;-33
2023/11/05 06:47:53;;;;;;;6.67;2.53;;;;;;;;;;5116070;28;20727;-33
2023/11/05 06:50:19;;;;;;;9.15;2.75;;;;;;;;;;5116738;28;20254;-33
2023/11/05 06:52:44;;;;;;;8.75;2.38;;;;;;;;;;5116247;28;20039;-33
2023/11/05 06:55:10;;;;;;;8.98;3.00;;;;;;;;;;5116920;28;20027;-33
2023/11/05 06:57:35;;;;;;;7.75;2.40;;;;;;;;;;5116791;28;20464;-33
2023/11/05 07:00:04;;;;;;;7.93;2.50;;;;;;;;;;5098031;28;20080;-33
2023/11/05 07:02:29;;;;;;;10.80;3.10;;;;;;;;;;5116337;28;20381;-33
2023/11/05 07:04:55;;;;;;;8.52;2.63;;;;;;;;;;5116410;28;20015;-33
2023/11/05 07:07:20;;;;;;;12.77;2.95;;;;;;;;;;5115014;28;20444;-33
2023/11/05 07:09:47;;;;;;;8.52;2.65;;;;;;;;;;5097778;28;20020;-33
2023/11/05 07:12:13;;;;;;;7.07;2.42;;;;;;;;;;5116290;28;20024;-33
2023/11/05 07:14:38;;;;;;;9.60;2.80;;;;;;;;;;5116047;28;20023;-33
2023/11/05 07:17:04;;;;;;;10.07;2.73;;;;;;;;;;5116554;28;20288;-33
2023/11/05 07:19:29;;;;;;;12.20;2.67;;;;;;;;;;5097442;28;20273;-33
2023/11/05 07:21:54;;;;;;;9.32;2.40;;;;;;;;;;5115897;28;20012;-33
2023/11/05 07:24:20;;;;;;;13.23;2.90;;;;;;;;;;5115841;28;20030;-33
2023/11/05 07:26:45;;;;;;;12.23;2.70;;;;;;;;;;5115353;28;20261;-33
2023/11/05 07:29:11;;;;;;;10.93;2.83;;;;;;;;;;5115974;28;20281;-33
2023/11/05 07:31:37;;;;;;;9.82;3.30;;;;;;;;;;5097379;28;20016;-33
2023/11/05 07:34:03;;;;;;;10.18;2.67;;;;;;;;;;5115890;28;20026;-33
2023/11/05 07:36:28;;;;;;;10.00;2.50;;;;;;;;;;5116123;28;20419;-33
2023/11/05 07:38:53;;;;;;;9.27;2.80;;;;;;;;;;5115764;28;20480;-32
2023/11/05 07:41:18;;;;;;;10.37;3.20;;;;;;;;;;5116036;28;20254;-33
2023/11/05 07:43:43;;;;;;;8.57;2.47;;;;;;;;;;5115722;28;20485;-33
2023/11/05 07:46:08;;;;;;;10.43;2.88;;;;;;;;;;5115343;28;20262;-33
2023/11/05 07:48:34;;;;;;;7.18;2.67;;;;;;;;;;5115692;28;20043;-33
2023/11/05 07:50:59;;;;;;;11.70;3.00;;;;;;;;;;5115369;28;20028;-32
2023/11/05 07:53:24;;;;;;;9.30;2.63;;;;;;;;;;5115271;28;20249;-32
2023/11/05 07:55:49;;;;;;;8.50;2.80;;;;;;;;;;5115786;28;20250;-33
2023/11/05 07:58:14;;;;;;;11.97;2.87;;;;;;;;;;5115067;28;20624;-32
2023/11/05 08:00:46;;;;;;;12.90;2.92;;;;;;;;;;5115057;28;20301;-33
2023/11/05 08:03:11;;;;;;;13.30;3.15;;;;;;;;;;5115303;28;20015;-33
2023/11/05 08:05:36;;;;;;;12.00;2.70;;;;;;;;;;5115077;28;20008;-33
2023/11/05 08:08:01;;;;;;;12.00;2.87;;;;;;;;;;5115480;28;20241;-33
2023/11/05 08:10:28;;;;;;;14.25;3.05;;;;;;;;;;5114980;28;20102;-33
2023/11/05 08:12:53;;;;;;;11.63;3.08;;;;;;;;;;5114752;28;20077;-32
2023/11/05 08:15:20;;;;;;;8.23;3.38;;;;;;;;;;5115090;28;20027;-32
2023/11/05 08:17:46;;;;;;;12.32;3.28;;;;;;;;;;5114948;28;20012;-32
2023/11/05 08:20:11;;;;;;;8.80;3.17;;;;;;;;;;5114754;28;20385;-32
2023/11/05 08:22:38;;;;;;;10.80;2.58;;;;;;;;;;5114954;28;20257;-33
2023/11/05 08:25:04;;;;;;;9.57;3.05;;;;;;;;;;5115663;28;20350;-32
2023/11/05 08:27:29;;;;;;;10.60;3.05;;;;;;;;;;5114608;28;20015;-32
2023/11/05 08:29:54;;;;;;;10.20;2.90;;;;;;;;;;5114578;28;20016;-33
2023/11/05 08:32:21;;;;;;;12.43;3.37;;;;;;;;;;5096296;28;20470;-32
2023/11/05 08:34:46;;;;;;;13.93;3.38;;;;;;;;;;5114719;28;20752;-32
2023/11/05 08:37:11;;;;;;;11.25;3.75;;;;;;;;;;5114443;28;20058;-32
2023/11/05 08:39:37;;;;;;;10.68;3.08;;;;;;;;;;5114272;28;20012;-32
2023/11/05 08:42:03;;;;;;;11.07;3.20;;;;;;;;;;5114588;28;20466;-33
2023/11/05 08:44:28;;;;;;;11.13;3.42;;;;;;;;;;5114342;28;20022;-32
2023/11/05 08:46:53;;;;;;;11.02;3.10;;;;;;;;;;5114330;28;20020;-32
2023/11/05 08:49:18;;;;;;;10.00;2.93;;;;;;;;;;5114223;28;20425;-32
2023/11/05 08:51:45;;;;;;;9.15;3.05;;;;;;;;;;5114074;28;20759;-33
2023/11/05 08:54:11;;;;;;;13.82;3.40;;;;;;;;;;5114464;28;20469;-33
2023/11/05 08:56:36;;;;;;;8.63;2.92;;;;;;;;;;5114105;28;20011;-33
2023/11/05 08:59:02;;;;;;;15.75;3.35;;;;;;;;;;5114293;28;20165;-32
2023/11/05 09:01:28;;;;;;;15.32;2.85;;;;;;;;;;5114344;28;20016;-32
2023/11/05 09:03:54;;;;;;;8.73;3.03;;;;;;;;;;5113598;28;20015;-32
2023/11/05 09:06:20;;;;;;;9.63;3.08;;;;;;;;;;5114286;28;20015;-32
2023/11/05 09:08:45;;;;;;;9.20;2.80;;;;;;;;;;5114250;28;20506;-32
2023/11/05 09:11:11;;;;;;;11.13;2.72;;;;;;;;;;5114968;28;20055;-32
2023/11/05 09:13:37;;;;;;;11.13;2.90;;;;;;;;;;5113935;28;20039;-32
2023/11/05 09:16:03;;;;;;;14.98;3.10;;;;;;;;;;5113940;28;20024;-32
2023/11/05 09:18:31;;;;;;;9.90;2.63;;;;;;;;;;5114387;28;20102;-32
2023/11/05 09:20:57;;;;;;;6.78;2.53;;;;;;;;;;5114028;28;20011;-32
2023/11/05 09:23:22;;;;;;;10.32;2.65;;;;;;;;;;5114032;28;20065;-33
2023/11/05 09:25:47;;;;;;;9.50;2.83;;;;;;;;;;5113753;28;20455;-32
2023/11/05 09:28:13;;;;;;;11.73;2.67;;;;;;;;;;5113723;28;20068;-33
2023/11/05 09:30:38;;;;;;;12.48;2.80;;;;;;;;;;5095449;28;20147;-33
2023/11/05 09:33:03;;;;;;;9.03;2.60;;;;;;;;;;5113751;28;20020;-32
2023/11/05 09:35:29;;;;;;;16.05;3.10;;;;;;;;;;5095474;28;20281;-32
2023/11/05 09:37:54;;;;;;;13.88;3.22;;;;;;;;;;5113583;28;20027;-33
2023/11/05 09:40:20;;;;;;;12.05;3.00;;;;;;;;;;5113956;28;20094;-32
2023/11/05 09:42:51;;;;;;;8.48;2.55;;;;;;;;;;5113803;28;20018;-33
2023/11/05 09:45:17;;;;;;;9.05;2.60;;;;;;;;;;5114132;28;20022;-33
2023/11/05 09:47:43;;;;;;;12.20;2.97;;;;;;;;;;5095282;28;20382;-38
2023/11/05 09:50:09;;;;;;;8.35;2.83;;;;;;;;;;5114064;28;20026;-33
2023/11/05 09:52:37;;;;;;;8.45;2.53;;;;;;;;;;5113349;28;20144;-32
2023/11/05 09:55:04;;;;;;;11.32;2.92;;;;;;;;;;5113954;28;20020;-33
2023/11/05 09:57:30;;;;;;;9.20;2.72;;;;;;;;;;5113703;28;20015;-32
2023/11/05 09:59:55;;;;;;;12.50;3.35;;;;;;;;;;5113449;28;20490;-32
2023/11/05 10:02:20;;;;;;;9.50;2.97;;;;;;;;;;5114012;28;20031;-33
2023/11/05 10:04:45;;;;;;;11.43;3.05;;;;;;;;;;5113693;28;20446;-32
2023/11/05 10:07:11;;;;;;;11.20;2.97;;;;;;;;;;5113938;28;20103;-33
2023/11/05 10:09:36;;;;;;;13.30;2.80;;;;;;;;;;5113395;28;20058;-32
2023/11/05 10:12:03;;;;;;;10.63;2.67;;;;;;;;;;5113445;28;20249;-31
2023/11/05 10:14:28;;;;;;;11.85;3.42;;;;;;;;;;5115131;28;20096;-32
2023/11/05 10:16:54;;;;;;;8.10;3.10;;;;;;;;;;5117222;28;20445;-33
2023/11/05 10:19:19;;;;;;;11.45;3.03;;;;;;;;;;5116999;28;20343;-32
2023/11/05 10:21:45;;;;;;;7.75;2.83;;;;;;;;;;5117325;28;20020;-32
2023/11/05 10:24:11;;;;;;;13.85;3.05;;;;;;;;;;5117236;28;20019;-32
2023/11/05 10:26:36;;;;;;;9.43;3.00;;;;;;;;;;5117287;28;20012;-32
2023/11/05 10:29:02;;;;;;;9.27;3.10;;;;;;;;;;5098660;28;20420;-33
2023/11/05 10:31:28;;;;;;;6.78;2.67;;;;;;;;;;5116925;28;20758;-33
2023/11/05 10:33:55;;;;;;;13.43;3.08;;;;;;;;;;5117132;28;20015;-33
2023/11/05 10:36:20;;;;;;;9.25;3.28;;;;;;;;;;5116838;28;20023;-33
2023/11/05 10:38:46;;;;;;;8.20;3.30;;;;;;;;;;5116567;28;20020;-33
2023/11/05 10:41:12;;;;;;;11.43;3.92;;;;;;;;;;5116652;28;20490;-33
2023/11/05 10:43:38;;;;;;;12.75;3.47;;;;;;;;;;5116650;28;20016;-33
2023/11/05 10:46:04;;;;;;;10.43;3.38;;;;;;;;;;5116587;28;20031;-33
2023/11/05 10:48:29;;;;;;;13.52;3.50;;;;;;;;;;5116885;28;20042;-33
2023/11/05 10:50:56;;;;;;;11.32;3.55;;;;;;;;;;5116492;28;20027;-35
2023/11/05 10:53:22;;;;;;;9.32;3.38;;;;;;;;;;5116268;28;20494;-33
2023/11/05 10:55:48;;;;;;;9.77;3.40;;;;;;;;;;5116409;28;20099;-33
2023/11/05 10:58:19;;;;;;;9.93;3.50;;;;;;;;;;5116582;28;20130;-33
2023/11/05 11:00:45;;;;;;;10.07;3.50;;;;;;;;;;5098904;28;20015;-33
2023/11/05 11:03:11;;;;;;;8.43;3.28;;;;;;;;;;5116600;28;20030;-33
2023/11/05 11:05:39;;;;;;;10.68;3.83;;;;;;;;;;5116588;28;20012;-33
2023/11/05 11:08:04;;;;;;;7.35;3.55;;;;;;;;;;5116711;28;20024;-33
2023/11/05 11:10:33;;;;;;;5.65;3.35;;;;;;;;;;5116711;28;20090;-33
2023/11/05 11:13:09;;;;;;;7.72;2.92;;;;;;;;;;5116077;28;20035;-33
2023/11/05 11:15:39;;;;;;;5.38;2.42;;;;;;;;;;5116027;28;20016;-33
2023/11/05 11:18:05;;;;;;;7.47;2.42;;;;;;;;;;5116113;28;20114;-33
2023/11/05 11:20:31;;;;;;;6.35;2.45;;;;;;;;;;5116280;28;20020;-33
2023/11/05 11:23:00;;;;;;;4.72;2.03;;;;;;;;;;5115867;28;20008;-33
2023/11/05 11:25:26;;;;;;;5.93;2.28;;;;;;;;;;5115166;28;20091;-32
2023/11/05 11:27:52;;;;;;;7.55;2.80;;;;;;;;;;5116502;28;20035;-33
2023/11/05 11:30:17;;;;;;;8.13;2.80;;;;;;;;;;5116360;28;20011;-33
2023/11/05 11:32:42;;;;;;;9.63;2.70;;;;;;;;;;5115959;28;20024;-34
2023/11/05 11:35:08;;;;;;;10.90;2.93;;;;;;;;;;5115647;28;20099;-33
2023/11/05 11:37:33;;;;;;;10.70;3.00;;;;;;;;;;5115522;28;20257;-33
2023/11/05 11:40:00;;;;;;;11.98;3.47;;;;;;;;;;5114255;28;20024;-33
2023/11/05 11:42:26;;;;;;;9.60;2.58;;;;;;;;;;5115203;28;20016;-33
2023/11/05 11:44:51;;;;;;;8.13;2.75;;;;;;;;;;5114412;28;20016;-33
2023/11/05 11:47:16;;;;;;;6.93;2.50;;;;;;;;;;5113383;28;20043;-33
2023/11/05 11:49:44;;;;;;;6.50;2.13;;;;;;;;;;5113640;28;20739;-33
2023/11/05 11:52:09;;;;;;;7.35;2.47;;;;;;;;;;5094792;28;20040;-33
2023/11/05 11:54:35;;;;;;;6.35;2.20;;;;;;;;;;5113273;28;20068;-33
2023/11/05 11:57:00;;;;;;;6.35;2.05;;;;;;;;;;5113471;28;20467;-33
2023/11/05 11:59:25;;;;;;;5.83;2.23;;;;;;;;;;5114313;28;20012;-33
2023/11/05 12:01:50;;;;;;;6.47;2.17;;;;;;;;;;5115347;28;20106;-33
2023/11/05 12:04:17;;;;;;;6.38;1.92;;;;;;;;;;5115051;28;20717;-33
2023/11/05 12:06:45;;;;;;;6.50;2.30;;;;;;;;;;5115413;28;20011;-33
2023/11/05 12:09:23;;;;;;;10.45;3.00;;;;;;;;;;5114609;28;20080;-33
2023/11/05 12:11:49;;;;;;;8.18;2.35;;;;;;;;;;5112758;28;20027;-33
2023/11/05 12:14:17;;;;;;;8.65;2.65;;;;;;;;;;5114508;28;20019;-33
2023/11/05 12:16:43;;;;;;;10.05;2.70;;;;;;;;;;5113087;28;20051;-33
2023/11/05 12:19:10;;;;;;;8.35;3.05;;;;;;;;;;5112638;28;20016;-33
2023/11/05 12:21:35;;;;;;;11.15;2.80;;;;;;;;;;5112718;28;20015;-33
2023/11/05 12:24:03;;;;;;;9.55;3.00;;;;;;;;;;5112904;28;20016;-33
2023/11/05 12:26:29;;;;;;;8.35;3.22;;;;;;;;;;5112361;28;20015;-38
2023/11/05 12:28:54;;;;;;;8.10;3.00;;;;;;;;;;5112405;28;20020;-33
2023/11/05 12:31:23;;;;;;;6.53;2.83;;;;;;;;;;5113251;28;20030;-33
2023/11/05 12:33:48;;;;;;;6.93;2.78;;;;;;;;;;5115521;28;20050;-33
2023/11/05 12:36:13;;;;;;;10.97;2.93;;;;;;;;;;5114408;28;20019;-33
2023/11/05 12:38:39;;;;;;;8.07;3.07;;;;;;;;;;5114859;28;20273;-37
2023/11/05 12:41:04;;;;;;;8.70;2.80;;;;;;;;;;5114937;28;20242;-33
2023/11/05 12:43:29;;;;;;;8.38;2.50;;;;;;;;;;5114488;28;20099;-33
2023/11/05 12:45:55;;;;;;;6.07;2.30;;;;;;;;;;5114283;28;20020;-33
2023/11/05 12:48:24;;;;;;;11.60;2.70;;;;;;;;;;5114816;28;20285;-33
2023/11/05 12:50:49;;;;;;;7.40;2.28;;;;;;;;;;5114204;28;20034;-33
2023/11/05 12:53:14;;;;;;;9.32;2.78;;;;;;;;;;5113920;28;20043;-33
2023/11/05 12:55:40;;;;;;;5.07;2.03;;;;;;;;;;5095921;28;20382;-33
2023/11/05 12:58:05;;;;;;;5.28;2.22;;;;;;;;;;5114319;28;20285;-33
2023/11/05 13:00:31;;;;;;;7.70;2.40;;;;;;;;;;5114411;28;20361;-33
2023/11/05 13:02:57;;;;;;;9.27;2.60;;;;;;;;;;5114024;28;20248;-33
2023/11/05 13:05:22;;;;;;;4.55;1.83;;;;;;;;;;5113926;28;20022;-33
2023/11/05 13:07:47;;;;;;;5.25;1.58;;;;;;;;;;5114151;28;20018;-33
2023/11/05 13:10:14;;;;;;;10.40;2.60;;;;;;;;;;5113961;28;20462;-33
2023/11/05 13:12:39;;;;;;;9.48;2.30;;;;;;;;;;5113856;28;20314;-33
2023/11/05 13:15:10;;;;;;;6.15;1.80;;;;;;;;;;5113818;28;20020;-33
2023/11/05 13:17:36;;;;;;;7.75;1.60;;;;;;;;;;5114042;28;20066;-33
2023/11/05 13:20:01;;;;;;;10.77;1.90;;;;;;;;;;5113989;28;20466;-32
2023/11/05 13:22:26;;;;;;;7.68;1.98;;;;;;;;;;5113812;28;20015;-32
2023/11/05 13:24:52;;;;;;;11.63;1.97;;;;;;;;;;5113830;28;20090;-32
2023/11/05 13:27:18;;;;;;;9.07;2.20;;;;;;;;;;5113706;28;20246;-33
2023/11/05 13:29:44;;;;;;;10.40;1.80;;;;;;;;;;5114034;28;20024;-32
2023/11/05 13:32:11;;;;;;;7.43;2.10;;;;;;;;;;5113967;28;20386;-33
2023/11/05 13:34:36;;;;;;;8.27;2.00;;;;;;;;;;5113855;28;20064;-33
2023/11/05 13:37:01;;;;;;;13.57;1.80;;;;;;;;;;5113677;28;20030;-33
2023/11/05 13:39:27;;;;;;;8.88;1.85;;;;;;;;;;5113515;28;20343;-34
2023/11/05 13:41:54;;;;;;;7.77;1.70;;;;;;;;;;5113730;28;20016;-33
2023/11/05 13:44:20;;;;;;;10.38;1.83;;;;;;;;;;5114131;28;20332;-33
2023/11/05 13:46:45;;;;;;;7.43;2.05;;;;;;;;;;5113771;28;20102;-32
2023/11/05 13:49:11;;;;;;;12.70;2.27;;;;;;;;;;5115448;28;20081;-33
2023/11/05 13:51:36;;;;;;;11.47;2.37;;;;;;;;;;5117941;28;20308;-33
2023/11/05 13:54:01;;;;;;;9.27;1.97;;;;;;;;;;5117612;28;20262;-33
2023/11/05 13:56:26;;;;;;;8.93;2.10;;;;;;;;;;5117535;28;20265;-33
2023/11/05 13:58:51;;;;;;;9.27;2.03;;;;;;;;;;5117426;28;20019;-34
2023/11/05 14:01:18;;;;;;;13.07;2.20;;;;;;;;;;5117758;28;20262;-34
2023/11/05 14:03:44;;;;;;;6.50;2.20;;;;;;;;;;5117724;28;20511;-34
2023/11/05 14:06:09;;;;;;;7.22;1.80;;;;;;;;;;5117406;28;20019;-33
2023/11/05 14:08:34;;;;;;;7.10;2.00;;;;;;;;;;5099049;28;20467;-33
2023/11/05 14:10:59;;;;;;;8.80;2.00;;;;;;;;;;5117181;28;20246;-33
2023/11/05 14:13:25;;;;;;;7.38;2.10;;;;;;;;;;5117466;28;20095;-33
2023/11/05 14:15:50;;;;;;;12.30;2.80;;;;;;;;;;5117541;28;20416;-32
2023/11/05 14:18:16;;;;;;;10.45;2.17;;;;;;;;;;5117576;28;20384;-33
2023/11/05 14:20:41;;;;;;;12.02;2.15;;;;;;;;;;5117694;28;20022;-33
2023/11/05 14:23:11;;;;;;;12.07;2.38;;;;;;;;;;5117283;28;20468;-33
2023/11/05 14:25:36;;;;;;;12.70;2.13;;;;;;;;;;5117604;28;20072;-33